Atmautluak, Alaska
Current Conditions -  °F | °C
As of 8:00 PM on Monday 20 Oct 2014 (Local Time) from PABE Reporting Station
Light Snow Light Snow  
Wind Chill: -8°   Ceiling: 2400
Heat Index: -2°   Visibility: 2mi
Dew Point: -3°   Wind: 13mph
Humidity: 96%   Direction: 330°NNW
Pressure: 29.2"   Gusts: NA
Location:  60.7494°N, 161.727°W
Report Text: PABE 210400Z 33011KT 2SM -SN BR OVC024 M02/M03 A2920 RMK AO2 P0000 T10221028
Loading
Personal Weather Stations






























Interactive Weather Map
Tropical Storm Tracking
New forecast layout! Learn more

10-Day Weather Forecast

Advertisements
Track Severe Weather on mobile